createdAt,value
2022-11-15T00:20:09.154Z,76.97
2022-11-15T00:48:27.393Z,76.96
2022-11-15T01:16:37.724Z,78.4
2022-11-15T01:44:52.548Z,80.95
2022-11-15T02:13:05.393Z,83.76
2022-11-15T02:41:18.208Z,84.15
2022-11-15T03:09:35.941Z,81.26
2022-11-15T03:37:43.333Z,79.95
2022-11-15T04:05:53.447Z,82.15
2022-11-15T04:34:11.211Z,79.78
2022-11-15T05:02:24.904Z,81.19
2022-11-15T05:31:15.348Z,85.31
2022-11-15T05:59:58.754Z,86.15
2022-11-15T06:28:55.932Z,84.02
2022-11-15T06:57:44.357Z,85.49
2022-11-15T07:26:35.820Z,87.37
2022-11-15T07:55:13.984Z,86.13
2022-11-15T08:24:09.023Z,90.23
2022-11-15T08:53:08.211Z,90.23
2022-11-15T09:21:39.615Z,90.41
2022-11-15T09:50:33.219Z,90.76
2022-11-15T10:19:23.218Z,87.41
2022-11-15T10:48:19.321Z,85.01
2022-11-15T11:17:03.621Z,89.27
2022-11-15T11:46:03.883Z,85.41
2022-11-15T12:14:55.278Z,86.25
2022-11-15T12:43:47.809Z,80.18
2022-11-15T13:12:05.579Z,77.21
2022-11-15T13:40:17.842Z,80.07
2022-11-15T14:08:32.215Z,87.64
2022-11-15T14:36:40.274Z,86.51
2022-11-15T15:05:03.449Z,85.33
2022-11-15T15:33:17.185Z,85.94
2022-11-15T16:01:51.093Z,91.28
2022-11-15T16:30:06.099Z,93.76
2022-11-15T16:58:12.079Z,95.64
2022-11-15T17:26:41.077Z,98.26
2022-11-15T17:54:40.355Z,94.34
2022-11-15T18:23:36.389Z,94.57
2022-11-15T18:52:03.924Z,96.78
2022-11-15T19:20:44.597Z,95.83
2022-11-15T19:49:39.701Z,95.73
2022-11-15T20:18:37.384Z,99.81
2022-11-15T20:47:14.392Z,99.08
2022-11-15T21:16:08.317Z,98.65
2022-11-15T21:44:20.417Z,100
2022-11-15T22:12:41.512Z,100
2022-11-15T22:41:01.107Z,100
2022-11-15T23:09:21.111Z,100
2022-11-15T23:37:40.715Z,100
